sensor_id;sensor_type;location;lat;lon;timestamp;pressure;altitude;pressure_sealevel;temperature;humidity
25350;BME280;13302;48.796;11.978;2023-03-16T00:01:20;97258.84;;;3.55;33.29
25350;BME280;13302;48.796;11.978;2023-03-16T00:04:08;97251.78;;;3.49;33.14
25350;BME280;13302;48.796;11.978;2023-03-16T00:06:55;97257.03;;;3.45;33.41
25350;BME280;13302;48.796;11.978;2023-03-16T00:09:43;97251.06;;;3.43;33.38
25350;BME280;13302;48.796;11.978;2023-03-16T00:12:30;97251.56;;;3.45;33.55
25350;BME280;13302;48.796;11.978;2023-03-16T00:15:20;97253.22;;;3.46;33.34
25350;BME280;13302;48.796;11.978;2023-03-16T00:18:07;97257.88;;;3.46;33.33
25350;BME280;13302;48.796;11.978;2023-03-16T00:20:59;97265.31;;;3.40;33.13
25350;BME280;13302;48.796;11.978;2023-03-16T00:23:49;97262.34;;;3.37;33.22
25350;BME280;13302;48.796;11.978;2023-03-16T00:26:39;97264.59;;;3.35;33.47
25350;BME280;13302;48.796;11.978;2023-03-16T00:29:26;97264.88;;;3.33;33.49
25350;BME280;13302;48.796;11.978;2023-03-16T00:32:14;97260.81;;;3.31;33.13
25350;BME280;13302;48.796;11.978;2023-03-16T00:35:03;97260.56;;;3.27;32.75
25350;BME280;13302;48.796;11.978;2023-03-16T00:37:55;97262.50;;;3.27;33.03
25350;BME280;13302;48.796;11.978;2023-03-16T00:40:45;97261.16;;;3.24;33.08
25350;BME280;13302;48.796;11.978;2023-03-16T00:43:33;97264.22;;;3.23;33.01
25350;BME280;13302;48.796;11.978;2023-03-16T00:46:27;97261.75;;;3.21;33.13
25350;BME280;13302;48.796;11.978;2023-03-16T00:49:14;97265.91;;;3.18;33.11
25350;BME280;13302;48.796;11.978;2023-03-16T00:52:03;97269.47;;;3.14;33.08
25350;BME280;13302;48.796;11.978;2023-03-16T00:54:54;97273.91;;;3.10;32.91
25350;BME280;13302;48.796;11.978;2023-03-16T00:57:41;97278.31;;;3.06;32.85
25350;BME280;13302;48.796;11.978;2023-03-16T01:00:28;97261.19;;;3.00;32.89
25350;BME280;13302;48.796;11.978;2023-03-16T01:03:15;97263.38;;;2.98;33.11
25350;BME280;13302;48.796;11.978;2023-03-16T01:06:20;97272.16;;;2.95;33.12
25350;BME280;13302;48.796;11.978;2023-03-16T01:09:07;97259.59;;;2.94;33.05
25350;BME280;13302;48.796;11.978;2023-03-16T01:11:55;97265.38;;;2.93;33.16
25350;BME280;13302;48.796;11.978;2023-03-16T01:14:43;97266.19;;;2.93;32.84
25350;BME280;13302;48.796;11.978;2023-03-16T01:17:33;97254.22;;;2.89;32.82
25350;BME280;13302;48.796;11.978;2023-03-16T01:20:21;97267.06;;;2.89;32.96
25350;BME280;13302;48.796;11.978;2023-03-16T01:23:08;97252.59;;;2.88;33.04
25350;BME280;13302;48.796;11.978;2023-03-16T01:25:56;97247.41;;;2.87;32.86
25350;BME280;13302;48.796;11.978;2023-03-16T01:28:43;97242.31;;;2.80;32.84
25350;BME280;13302;48.796;11.978;2023-03-16T01:31:30;97242.09;;;2.76;33.02
25350;BME280;13302;48.796;11.978;2023-03-16T01:34:18;97240.72;;;2.74;33.08
25350;BME280;13302;48.796;11.978;2023-03-16T01:37:05;97248.13;;;2.73;33.13
25350;BME280;13302;48.796;11.978;2023-03-16T01:40:00;97257.94;;;2.74;32.84
25350;BME280;13302;48.796;11.978;2023-03-16T01:42:57;97254.69;;;2.72;32.61
25350;BME280;13302;48.796;11.978;2023-03-16T01:46:23;97255.25;;;2.69;32.80
25350;BME280;13302;48.796;11.978;2023-03-16T01:49:17;97251.47;;;2.65;32.86
25350;BME280;13302;48.796;11.978;2023-03-16T01:52:09;97253.97;;;2.62;33.14
25350;BME280;13302;48.796;11.978;2023-03-16T01:55:03;97253.75;;;2.58;33.00
25350;BME280;13302;48.796;11.978;2023-03-16T01:57:52;97252.66;;;2.59;33.29
25350;BME280;13302;48.796;11.978;2023-03-16T02:00:40;97256.19;;;2.60;32.94
25350;BME280;13302;48.796;11.978;2023-03-16T02:03:35;97255.09;;;2.61;32.83
25350;BME280;13302;48.796;11.978;2023-03-16T02:06:32;97250.75;;;2.60;33.05
25350;BME280;13302;48.796;11.978;2023-03-16T02:09:20;97260.56;;;2.61;33.12
25350;BME280;13302;48.796;11.978;2023-03-16T02:12:09;97250.44;;;2.61;32.86
25350;BME280;13302;48.796;11.978;2023-03-16T02:15:07;97247.69;;;2.61;32.90
25350;BME280;13302;48.796;11.978;2023-03-16T02:17:55;97250.75;;;2.60;32.91
25350;BME280;13302;48.796;11.978;2023-03-16T02:20:47;97248.28;;;2.58;33.07
25350;BME280;13302;48.796;11.978;2023-03-16T02:23:36;97243.66;;;2.59;33.01
25350;BME280;13302;48.796;11.978;2023-03-16T02:29:54;97246.19;;;2.50;33.00
25350;BME280;13302;48.796;11.978;2023-03-16T02:32:47;97244.56;;;2.49;32.88
25350;BME280;13302;48.796;11.978;2023-03-16T02:35:35;97250.59;;;2.46;33.08
25350;BME280;13302;48.796;11.978;2023-03-16T02:38:22;97243.25;;;2.47;33.35
25350;BME280;13302;48.796;11.978;2023-03-16T02:41:14;97236.97;;;2.46;33.23
25350;BME280;13302;48.796;11.978;2023-03-16T02:44:10;97243.25;;;2.47;33.04
25350;BME280;13302;48.796;11.978;2023-03-16T02:47:56;97238.06;;;2.45;33.08
25350;BME280;13302;48.796;11.978;2023-03-16T02:50:18;97238.66;;;2.42;33.18
25350;BME280;13302;48.796;11.978;2023-03-16T02:53:05;97240.56;;;2.42;33.24
25350;BME280;13302;48.796;11.978;2023-03-16T02:55:55;97242.19;;;2.43;33.36
25350;BME280;13302;48.796;11.978;2023-03-16T02:58:42;97240.28;;;2.43;33.30
25350;BME280;13302;48.796;11.978;2023-03-16T03:01:34;97245.75;;;2.43;32.97
25350;BME280;13302;48.796;11.978;2023-03-16T03:04:22;97239.50;;;2.38;33.11
25350;BME280;13302;48.796;11.978;2023-03-16T03:07:11;97245.28;;;2.36;33.31
25350;BME280;13302;48.796;11.978;2023-03-16T03:10:23;97244.16;;;2.37;32.82
25350;BME280;13302;48.796;11.978;2023-03-16T03:13:10;97255.06;;;2.37;32.56
25350;BME280;13302;48.796;11.978;2023-03-16T03:15:58;97261.66;;;2.36;32.73
25350;BME280;13302;48.796;11.978;2023-03-16T03:18:47;97247.75;;;2.32;32.86
25350;BME280;13302;48.796;11.978;2023-03-16T03:21:34;97255.41;;;2.30;33.03
25350;BME280;13302;48.796;11.978;2023-03-16T03:24:22;97262.78;;;2.30;32.88
25350;BME280;13302;48.796;11.978;2023-03-16T03:27:09;97256.50;;;2.29;32.92
25350;BME280;13302;48.796;11.978;2023-03-16T03:29:58;97251.34;;;2.28;32.92
25350;BME280;13302;48.796;11.978;2023-03-16T03:32:47;97249.50;;;2.23;32.95
25350;BME280;13302;48.796;11.978;2023-03-16T03:35:37;97245.72;;;2.19;32.98
25350;BME280;13302;48.796;11.978;2023-03-16T03:38:24;97252.84;;;2.15;32.96
25350;BME280;13302;48.796;11.978;2023-03-16T03:41:13;97246.84;;;2.13;33.01
25350;BME280;13302;48.796;11.978;2023-03-16T03:44:00;97249.56;;;2.13;32.98
25350;BME280;13302;48.796;11.978;2023-03-16T03:46:47;97247.66;;;2.14;32.81
25350;BME280;13302;48.796;11.978;2023-03-16T03:49:35;97241.38;;;2.13;32.94
25350;BME280;13302;48.796;11.978;2023-03-16T03:52:22;97241.16;;;2.10;32.90
25350;BME280;13302;48.796;11.978;2023-03-16T03:55:09;97249.34;;;2.10;33.01
25350;BME280;13302;48.796;11.978;2023-03-16T03:57:56;97243.06;;;2.09;32.33
25350;BME280;13302;48.796;11.978;2023-03-16T04:00:43;97251.56;;;2.08;32.33
25350;BME280;13302;48.796;11.978;2023-03-16T04:03:30;97249.63;;;2.08;32.82
25350;BME280;13302;48.796;11.978;2023-03-16T04:06:17;97249.63;;;2.08;32.72
25350;BME280;13302;48.796;11.978;2023-03-16T04:09:05;97254.78;;;2.10;32.80
25350;BME280;13302;48.796;11.978;2023-03-16T04:11:52;97254.78;;;2.10;33.07
25350;BME280;13302;48.796;11.978;2023-03-16T04:14:39;97252.31;;;2.13;33.24
25350;BME280;13302;48.796;11.978;2023-03-16T04:17:28;97255.56;;;2.15;33.32
25350;BME280;13302;48.796;11.978;2023-03-16T04:20:18;97250.63;;;2.17;33.34
25350;BME280;13302;48.796;11.978;2023-03-16T04:23:06;97258.00;;;2.17;33.50
25350;BME280;13302;48.796;11.978;2023-03-16T04:25:57;97258.81;;;2.17;33.83
25350;BME280;13302;48.796;11.978;2023-03-16T04:28:44;97264.81;;;2.19;33.78
25350;BME280;13302;48.796;11.978;2023-03-16T04:31:34;97260.94;;;2.20;34.22
25350;BME280;13302;48.796;11.978;2023-03-16T04:34:22;97267.22;;;2.21;34.05
25350;BME280;13302;48.796;11.978;2023-03-16T04:37:14;97267.75;;;2.23;34.08
25350;BME280;13302;48.796;11.978;2023-03-16T04:40:02;97270.72;;;2.26;34.50
25350;BME280;13302;48.796;11.978;2023-03-16T04:42:57;97266.31;;;2.30;34.57
25350;BME280;13302;48.796;11.978;2023-03-16T04:45:45;97261.91;;;2.35;34.92
25350;BME280;13302;48.796;11.978;2023-03-16T04:48:32;97254.78;;;2.39;35.05
25350;BME280;13302;48.796;11.978;2023-03-16T04:51:20;97240.78;;;2.45;35.17
25350;BME280;13302;48.796;11.978;2023-03-16T04:54:22;97246.75;;;2.52;35.27
25350;BME280;13302;48.796;11.978;2023-03-16T04:57:09;97244.25;;;2.56;35.57
25350;BME280;13302;48.796;11.978;2023-03-16T05:00:03;97242.00;;;2.58;35.64
25350;BME280;13302;48.796;11.978;2023-03-16T05:03:01;97231.31;;;2.61;35.79
25350;BME280;13302;48.796;11.978;2023-03-16T05:05:49;97238.41;;;2.62;35.85
25350;BME280;13302;48.796;11.978;2023-03-16T05:08:37;97229.94;;;2.64;36.07
25350;BME280;13302;48.796;11.978;2023-03-16T05:11:24;97228.59;;;2.61;35.88
25350;BME280;13302;48.796;11.978;2023-03-16T05:14:16;97233.00;;;2.57;35.85
25350;BME280;13302;48.796;11.978;2023-03-16T05:17:33;97236.91;;;2.51;36.01
25350;BME280;13302;48.796;11.978;2023-03-16T05:20:20;97241.84;;;2.49;36.11
25350;BME280;13302;48.796;11.978;2023-03-16T05:23:11;97236.09;;;2.51;36.00
25350;BME280;13302;48.796;11.978;2023-03-16T05:26:05;97228.50;;;2.48;36.16
25350;BME280;13302;48.796;11.978;2023-03-16T05:28:56;97234.19;;;2.51;36.10
25350;BME280;13302;48.796;11.978;2023-03-16T05:31:46;97231.47;;;2.51;36.13
25350;BME280;13302;48.796;11.978;2023-03-16T05:34:36;97232.28;;;2.52;35.92
25350;BME280;13302;48.796;11.978;2023-03-16T05:37:24;97245.63;;;2.53;35.99
25350;BME280;13302;48.796;11.978;2023-03-16T05:40:13;97235.81;;;2.52;36.36
25350;BME280;13302;48.796;11.978;2023-03-16T05:43:08;97236.88;;;2.56;36.17
25350;BME280;13302;48.796;11.978;2023-03-16T05:46:02;97246.16;;;2.55;36.30
25350;BME280;13302;48.796;11.978;2023-03-16T05:48:50;97242.56;;;2.60;36.23
25350;BME280;13302;48.796;11.978;2023-03-16T05:51:39;97243.88;;;2.62;36.12
25350;BME280;13302;48.796;11.978;2023-03-16T05:54:26;97246.31;;;2.64;36.16
25350;BME280;13302;48.796;11.978;2023-03-16T05:57:14;97237.03;;;2.65;36.22
25350;BME280;13302;48.796;11.978;2023-03-16T06:00:05;97236.50;;;2.63;36.51
25350;BME280;13302;48.796;11.978;2023-03-16T06:02:58;97232.69;;;2.64;36.34
25350;BME280;13302;48.796;11.978;2023-03-16T06:05:49;97241.91;;;2.68;36.28
25350;BME280;13302;48.796;11.978;2023-03-16T06:08:43;97232.84;;;2.72;36.13
25350;BME280;13302;48.796;11.978;2023-03-16T06:11:31;97232.84;;;2.72;36.17
25350;BME280;13302;48.796;11.978;2023-03-16T06:14:19;97236.41;;;2.73;36.26
25350;BME280;13302;48.796;11.978;2023-03-16T06:17:07;97229.53;;;2.75;36.34
25350;BME280;13302;48.796;11.978;2023-03-16T06:19:54;97241.78;;;2.78;36.52
25350;BME280;13302;48.796;11.978;2023-03-16T06:22:42;97241.78;;;2.78;36.36
25350;BME280;13302;48.796;11.978;2023-03-16T06:25:30;97240.09;;;2.82;36.20
25350;BME280;13302;48.796;11.978;2023-03-16T06:28:18;97240.09;;;2.82;36.50
25350;BME280;13302;48.796;11.978;2023-03-16T06:31:06;97246.09;;;2.84;36.22
25350;BME280;13302;48.796;11.978;2023-03-16T06:33:55;97249.69;;;2.80;36.22
25350;BME280;13302;48.796;11.978;2023-03-16T06:36:42;97248.88;;;2.79;36.38
25350;BME280;13302;48.796;11.978;2023-03-16T06:39:32;97245.03;;;2.80;36.30
25350;BME280;13302;48.796;11.978;2023-03-16T06:42:19;97243.94;;;2.81;36.33
25350;BME280;13302;48.796;11.978;2023-03-16T06:45:06;97246.91;;;2.85;36.56
25350;BME280;13302;48.796;11.978;2023-03-16T06:47:54;97258.34;;;2.87;36.51
25350;BME280;13302;48.796;11.978;2023-03-16T06:50:44;97255.03;;;2.90;36.63
25350;BME280;13302;48.796;11.978;2023-03-16T06:53:32;97254.69;;;2.96;36.57
25350;BME280;13302;48.796;11.978;2023-03-16T06:56:20;97253.50;;;3.02;36.34
25350;BME280;13302;48.796;11.978;2023-03-16T06:59:08;97255.66;;;3.05;36.32
25350;BME280;13302;48.796;11.978;2023-03-16T07:01:56;97253.75;;;3.06;36.47
25350;BME280;13302;48.796;11.978;2023-03-16T07:04:43;97262.16;;;3.09;35.98
25350;BME280;13302;48.796;11.978;2023-03-16T07:07:30;97260.47;;;3.13;36.32
25350;BME280;13302;48.796;11.978;2023-03-16T07:10:17;97267.28;;;3.16;36.31
25350;BME280;13302;48.796;11.978;2023-03-16T07:13:05;97266.69;;;3.19;36.29
25350;BME280;13302;48.796;11.978;2023-03-16T07:15:52;97268.03;;;3.21;36.45
25350;BME280;13302;48.796;11.978;2023-03-16T07:18:41;97266.94;;;3.23;36.45
25350;BME280;13302;48.796;11.978;2023-03-16T07:21:32;97265.25;;;3.27;36.61
25350;BME280;13302;48.796;11.978;2023-03-16T07:24:27;97277.50;;;3.29;36.48
25350;BME280;13302;48.796;11.978;2023-03-16T07:27:15;97272.63;;;3.26;36.50
25350;BME280;13302;48.796;11.978;2023-03-16T07:30:04;97271.28;;;3.23;36.48
25350;BME280;13302;48.796;11.978;2023-03-16T07:32:54;97276.69;;;3.29;36.49
25350;BME280;13302;48.796;11.978;2023-03-16T07:35:43;97276.09;;;3.32;36.81
25350;BME280;13302;48.796;11.978;2023-03-16T07:38:31;97282.91;;;3.34;36.54
25350;BME280;13302;48.796;11.978;2023-03-16T07:41:19;97290.22;;;3.39;36.36
25350;BME280;13302;48.796;11.978;2023-03-16T07:44:07;97288.53;;;3.43;36.61
25350;BME280;13302;48.796;11.978;2023-03-16T07:46:54;97297.22;;;3.45;36.59
25350;BME280;13302;48.796;11.978;2023-03-16T07:49:44;97303.50;;;3.45;36.60
25350;BME280;13302;48.796;11.978;2023-03-16T07:52:32;97302.41;;;3.46;36.76
25350;BME280;13302;48.796;11.978;2023-03-16T07:55:23;97306.47;;;3.49;36.70
25350;BME280;13302;48.796;11.978;2023-03-16T07:58:11;97308.59;;;3.52;36.73
25350;BME280;13302;48.796;11.978;2023-03-16T08:01:01;97316.50;;;3.53;36.76
25350;BME280;13302;48.796;11.978;2023-03-16T08:03:48;97307.72;;;3.56;36.69
25350;BME280;13302;48.796;11.978;2023-03-16T08:06:36;97299.75;;;3.60;36.77
25350;BME280;13302;48.796;11.978;2023-03-16T08:09:23;97300.56;;;3.60;36.83
25350;BME280;13302;48.796;11.978;2023-03-16T08:12:10;97307.88;;;3.65;36.85
25350;BME280;13302;48.796;11.978;2023-03-16T08:14:58;97307.59;;;3.66;36.84
25350;BME280;13302;48.796;11.978;2023-03-16T08:17:48;97313.28;;;3.70;36.99
25350;BME280;13302;48.796;11.978;2023-03-16T08:20:41;97310.16;;;3.77;36.82
25350;BME280;13302;48.796;11.978;2023-03-16T08:23:30;97313.13;;;3.80;36.80
25350;BME280;13302;48.796;11.978;2023-03-16T08:26:20;97317.19;;;3.83;36.83
25350;BME280;13302;48.796;11.978;2023-03-16T08:29:13;97301.81;;;3.87;36.94
25350;BME280;13302;48.796;11.978;2023-03-16T08:32:00;97304.75;;;3.90;36.79
25350;BME280;13302;48.796;11.978;2023-03-16T08:34:52;97310.78;;;3.92;36.86
25350;BME280;13302;48.796;11.978;2023-03-16T08:37:40;97307.44;;;3.95;36.78
25350;BME280;13302;48.796;11.978;2023-03-16T08:40:27;97304.09;;;3.98;36.85
25350;BME280;13302;48.796;11.978;2023-03-16T08:43:18;97292.53;;;4.01;36.93
25350;BME280;13302;48.796;11.978;2023-03-16T08:46:06;97298.53;;;4.03;37.13
25350;BME280;13302;48.796;11.978;2023-03-16T08:49:04;97289.44;;;4.08;36.86
25350;BME280;13302;48.796;11.978;2023-03-16T08:51:52;97290.97;;;4.14;37.00
25350;BME280;13302;48.796;11.978;2023-03-16T08:54:40;97292.00;;;4.18;36.82
25350;BME280;13302;48.796;11.978;2023-03-16T08:57:38;97292.44;;;4.25;36.84
25350;BME280;13302;48.796;11.978;2023-03-16T09:00:25;97293.16;;;4.31;36.79
25350;BME280;13302;48.796;11.978;2023-03-16T09:03:14;97288.41;;;4.36;36.70
25350;BME280;13302;48.796;11.978;2023-03-16T09:06:06;97279.31;;;4.41;36.88
25350;BME280;13302;48.796;11.978;2023-03-16T09:08:53;97291.78;;;4.47;37.03
25350;BME280;13302;48.796;11.978;2023-03-16T09:11:42;97283.78;;;4.50;36.93
25350;BME280;13302;48.796;11.978;2023-03-16T09:14:29;97289.47;;;4.54;36.95
25350;BME280;13302;48.796;11.978;2023-03-16T09:17:17;97296.75;;;4.58;36.93
25350;BME280;13302;48.796;11.978;2023-03-16T09:20:05;97293.66;;;4.65;36.65
25350;BME280;13302;48.796;11.978;2023-03-16T09:23:11;97299.31;;;4.69;36.76
25350;BME280;13302;48.796;11.978;2023-03-16T09:26:01;97291.88;;;4.74;36.79
25350;BME280;13302;48.796;11.978;2023-03-16T09:28:48;97293.19;;;4.77;36.92
25350;BME280;13302;48.796;11.978;2023-03-16T09:31:36;97294.50;;;4.79;36.85
25350;BME280;13302;48.796;11.978;2023-03-16T09:34:23;97292.56;;;4.80;36.70
25350;BME280;13302;48.796;11.978;2023-03-16T09:37:11;97287.53;;;4.87;36.72
25350;BME280;13302;48.796;11.978;2023-03-16T09:39:58;97286.09;;;4.89;36.70
25350;BME280;13302;48.796;11.978;2023-03-16T09:43:27;97298.34;;;4.92;36.78
25350;BME280;13302;48.796;11.978;2023-03-16T09:49:15;97302.22;;;5.04;36.72
25350;BME280;13302;48.796;11.978;2023-03-16T09:52:31;97301.00;;;5.11;36.87
25350;BME280;13302;48.796;11.978;2023-03-16T09:55:29;97299.28;;;5.15;36.78
25350;BME280;13302;48.796;11.978;2023-03-16T09:58:21;97292.47;;;5.26;36.52
25350;BME280;13302;48.796;11.978;2023-03-16T10:04:51;97288.06;;;5.52;36.79
25350;BME280;13302;48.796;11.978;2023-03-16T10:13:52;97286.34;;;5.92;36.36
25350;BME280;13302;48.796;11.978;2023-03-16T10:16:58;97276.13;;;6.06;36.43
25350;BME280;13302;48.796;11.978;2023-03-16T10:19:56;97273.03;;;6.21;36.28
25350;BME280;13302;48.796;11.978;2023-03-16T10:22:47;97269.41;;;6.34;36.23
25350;BME280;13302;48.796;11.978;2023-03-16T10:25:43;97271.75;;;6.50;35.97
25350;BME280;13302;48.796;11.978;2023-03-16T10:28:32;97278.28;;;6.62;35.79
25350;BME280;13302;48.796;11.978;2023-03-16T10:31:21;97267.00;;;6.72;35.69
25350;BME280;13302;48.796;11.978;2023-03-16T10:34:09;97262.53;;;6.85;35.66
25350;BME280;13302;48.796;11.978;2023-03-16T10:36:56;97266.66;;;6.96;35.48
25350;BME280;13302;48.796;11.978;2023-03-16T10:39:43;97270.72;;;7.07;35.49
25350;BME280;13302;48.796;11.978;2023-03-16T10:42:30;97266.88;;;7.17;35.33
25350;BME280;13302;48.796;11.978;2023-03-16T10:45:31;97272.41;;;7.25;35.43
25350;BME280;13302;48.796;11.978;2023-03-16T10:48:20;97266.91;;;7.34;34.90
25350;BME280;13302;48.796;11.978;2023-03-16T10:51:11;97260.00;;;7.36;34.69
25350;BME280;13302;48.796;11.978;2023-03-16T10:56:50;97248.06;;;7.50;34.35
25350;BME280;13302;48.796;11.978;2023-03-16T10:59:38;97241.41;;;7.51;34.41
25350;BME280;13302;48.796;11.978;2023-03-16T11:02:33;97233.66;;;7.53;34.34
25350;BME280;13302;48.796;11.978;2023-03-16T11:08:24;97230.41;;;7.59;34.44
25350;BME280;13302;48.796;11.978;2023-03-16T11:11:20;97226.84;;;7.59;34.05
25350;BME280;13302;48.796;11.978;2023-03-16T11:14:12;97223.47;;;7.62;34.09
25350;BME280;13302;48.796;11.978;2023-03-16T11:17:09;97216.81;;;7.63;33.83
25350;BME280;13302;48.796;11.978;2023-03-16T11:20:03;97220.88;;;7.65;33.90
25350;BME280;13302;48.796;11.978;2023-03-16T11:23:00;97212.78;;;7.69;33.83
25350;BME280;13302;48.796;11.978;2023-03-16T11:25:51;97219.25;;;7.73;33.88
25350;BME280;13302;48.796;11.978;2023-03-16T11:28:50;97210.03;;;7.77;33.85
25350;BME280;13302;48.796;11.978;2023-03-16T11:31:45;97211.81;;;7.82;33.83
25350;BME280;13302;48.796;11.978;2023-03-16T11:34:35;97197.38;;;7.85;33.68
25350;BME280;13302;48.796;11.978;2023-03-16T11:43:53;97189.28;;;7.97;33.69
25350;BME280;13302;48.796;11.978;2023-03-16T11:49:51;97186.66;;;8.18;33.40
25350;BME280;13302;48.796;11.978;2023-03-16T12:08:45;97160.31;;;8.55;32.57
25350;BME280;13302;48.796;11.978;2023-03-16T12:14:46;97152.19;;;8.58;32.59
25350;BME280;13302;48.796;11.978;2023-03-16T12:17:37;97158.78;;;8.66;32.68
25350;BME280;13302;48.796;11.978;2023-03-16T12:20:29;97155.53;;;8.72;32.37
25350;BME280;13302;48.796;11.978;2023-03-16T12:23:27;97151.44;;;8.79;32.39
25350;BME280;13302;48.796;11.978;2023-03-16T12:26:17;97137.47;;;8.84;32.59
25350;BME280;13302;48.796;11.978;2023-03-16T12:32:14;97144.69;;;8.97;32.45
25350;BME280;13302;48.796;11.978;2023-03-16T12:35:15;97142.22;;;9.04;32.49
25350;BME280;13302;48.796;11.978;2023-03-16T12:41:35;97129.50;;;9.11;31.64
25350;BME280;13302;48.796;11.978;2023-03-16T12:44:32;97122.84;;;9.12;31.18
25350;BME280;13302;48.796;11.978;2023-03-16T12:50:49;97119.03;;;9.05;30.93
25350;BME280;13302;48.796;11.978;2023-03-16T12:56:43;97115.50;;;8.96;31.41
25350;BME280;13302;48.796;11.978;2023-03-16T12:59:42;97115.38;;;8.92;31.21
25350;BME280;13302;48.796;11.978;2023-03-16T13:02:31;97103.81;;;8.99;31.36
25350;BME280;13302;48.796;11.978;2023-03-16T13:05:31;97109.81;;;9.01;31.27
25350;BME280;13302;48.796;11.978;2023-03-16T13:08:19;97100.41;;;9.02;31.42
25350;BME280;13302;48.796;11.978;2023-03-16T13:11:09;97094.53;;;9.03;31.52
25350;BME280;13302;48.796;11.978;2023-03-16T13:16:47;97084.56;;;9.11;31.18
25350;BME280;13302;48.796;11.978;2023-03-16T13:19:35;97079.66;;;9.16;31.21
25350;BME280;13302;48.796;11.978;2023-03-16T13:22:29;97088.06;;;9.20;31.17
25350;BME280;13302;48.796;11.978;2023-03-16T13:28:16;97081.69;;;9.28;30.90
25350;BME280;13302;48.796;11.978;2023-03-16T13:34:22;97079.41;;;9.30;30.60
25350;BME280;13302;48.796;11.978;2023-03-16T13:37:13;97073.66;;;9.35;30.55
25350;BME280;13302;48.796;11.978;2023-03-16T13:40:01;97069.44;;;9.38;30.28
25350;BME280;13302;48.796;11.978;2023-03-16T13:42:50;97067.25;;;9.43;30.49
25350;BME280;13302;48.796;11.978;2023-03-16T13:45:40;97059.91;;;9.47;30.23
25350;BME280;13302;48.796;11.978;2023-03-16T13:48:28;97067.19;;;9.52;30.26
25350;BME280;13302;48.796;11.978;2023-03-16T13:51:17;97058.56;;;9.53;30.32
25350;BME280;13302;48.796;11.978;2023-03-16T13:54:21;97061.34;;;9.53;29.84
25350;BME280;13302;48.796;11.978;2023-03-16T13:57:10;97060.81;;;9.60;29.61
25350;BME280;13302;48.796;11.978;2023-03-16T14:00:06;97057.72;;;9.61;29.92
25350;BME280;13302;48.796;11.978;2023-03-16T14:03:14;97053.81;;;9.62;29.93
25350;BME280;13302;48.796;11.978;2023-03-16T14:06:03;97048.41;;;9.66;29.71
25350;BME280;13302;48.796;11.978;2023-03-16T14:08:52;97053.59;;;9.67;29.70
25350;BME280;13302;48.796;11.978;2023-03-16T14:11:40;97050.59;;;9.73;29.81
25350;BME280;13302;48.796;11.978;2023-03-16T14:14:31;97044.88;;;9.78;29.74
25350;BME280;13302;48.796;11.978;2023-03-16T14:17:23;97045.69;;;9.78;29.42
25350;BME280;13302;48.796;11.978;2023-03-16T14:20:18;97051.66;;;9.80;29.50
25350;BME280;13302;48.796;11.978;2023-03-16T14:23:17;97051.00;;;9.83;29.37
25350;BME280;13302;48.796;11.978;2023-03-16T14:26:10;97051.00;;;9.83;29.44
25350;BME280;13302;48.796;11.978;2023-03-16T14:32:30;97048.69;;;9.85;29.07
25350;BME280;13302;48.796;11.978;2023-03-16T14:35:20;97055.50;;;9.88;28.70
25350;BME280;13302;48.796;11.978;2023-03-16T14:38:32;97046.41;;;9.87;28.68
25350;BME280;13302;48.796;11.978;2023-03-16T14:41:22;97040.06;;;9.87;28.66
25350;BME280;13302;48.796;11.978;2023-03-16T14:44:25;97036.97;;;9.88;28.52
25350;BME280;13302;48.796;11.978;2023-03-16T14:47:21;97043.97;;;9.86;28.48
25350;BME280;13302;48.796;11.978;2023-03-16T14:50:16;97044.78;;;9.86;28.54
25350;BME280;13302;48.796;11.978;2023-03-16T14:53:04;97034.22;;;9.88;28.06
25350;BME280;13302;48.796;11.978;2023-03-16T14:55:53;97037.09;;;9.92;28.01
25350;BME280;13302;48.796;11.978;2023-03-16T14:58:40;97033.53;;;9.91;28.26
25350;BME280;13302;48.796;11.978;2023-03-16T15:01:27;97033.16;;;9.93;28.22
25350;BME280;13302;48.796;11.978;2023-03-16T15:04:23;97029.25;;;9.94;28.04
25350;BME280;13302;48.796;11.978;2023-03-16T15:07:22;97024.09;;;9.92;28.07
25350;BME280;13302;48.796;11.978;2023-03-16T15:13:01;97021.44;;;9.96;27.86
25350;BME280;13302;48.796;11.978;2023-03-16T15:16:02;97016.75;;;9.96;27.98
25350;BME280;13302;48.796;11.978;2023-03-16T15:18:51;97016.38;;;9.98;27.85
25350;BME280;13302;48.796;11.978;2023-03-16T15:21:38;97010.03;;;9.97;27.63
25350;BME280;13302;48.796;11.978;2023-03-16T15:24:25;97005.34;;;9.98;27.66
25350;BME280;13302;48.796;11.978;2023-03-16T15:27:20;96994.50;;;9.93;27.54
25350;BME280;13302;48.796;11.978;2023-03-16T15:30:28;96991.75;;;9.93;27.39
25350;BME280;13302;48.796;11.978;2023-03-16T15:33:17;96987.72;;;9.90;27.32
25350;BME280;13302;48.796;11.978;2023-03-16T15:36:18;96986.91;;;9.90;27.66
25350;BME280;13302;48.796;11.978;2023-03-16T15:39:10;96983.69;;;9.88;27.71
25350;BME280;13302;48.796;11.978;2023-03-16T15:42:10;96977.00;;;9.89;27.38
25350;BME280;13302;48.796;11.978;2023-03-16T15:44:59;96977.00;;;9.89;27.76
25350;BME280;13302;48.796;11.978;2023-03-16T15:47:47;96975.31;;;9.84;27.54
25350;BME280;13302;48.796;11.978;2023-03-16T15:50:36;96972.19;;;9.86;27.56
25350;BME280;13302;48.796;11.978;2023-03-16T15:53:27;96971.25;;;9.82;27.69
25350;BME280;13302;48.796;11.978;2023-03-16T15:56:22;96976.78;;;9.82;27.95
25350;BME280;13302;48.796;11.978;2023-03-16T15:59:16;96970.44;;;9.81;27.69
25350;BME280;13302;48.796;11.978;2023-03-16T16:02:30;96965.94;;;9.77;27.67
25350;BME280;13302;48.796;11.978;2023-03-16T16:05:18;96958.03;;;9.75;27.64
25350;BME280;13302;48.796;11.978;2023-03-16T16:08:05;96953.53;;;9.71;27.48
25350;BME280;13302;48.796;11.978;2023-03-16T16:10:52;96945.94;;;9.67;27.44
25350;BME280;13302;48.796;11.978;2023-03-16T16:13:40;96947.91;;;9.67;27.60
25350;BME280;13302;48.796;11.978;2023-03-16T16:16:31;96952.13;;;9.64;27.44
25350;BME280;13302;48.796;11.978;2023-03-16T16:19:20;96960.28;;;9.61;27.45
25350;BME280;13302;48.796;11.978;2023-03-16T16:22:10;96962.94;;;9.57;27.38
25350;BME280;13302;48.796;11.978;2023-03-16T16:24:58;96961.66;;;9.55;27.48